createdAt,value
2022-08-23T00:02:57.167Z,8.20
2022-08-23T00:05:45.317Z,5.90
2022-08-23T00:08:34.273Z,5.80
2022-08-23T00:11:35.781Z,6.50
2022-08-23T00:14:31.616Z,7.40
2022-08-23T00:17:34.427Z,7.60
2022-08-23T00:20:22.874Z,6.30
2022-08-23T00:23:11.582Z,5.70
2022-08-23T00:26:02.993Z,5.60
2022-08-23T00:28:51.021Z,8.20
2022-08-23T00:31:38.885Z,7.00
2022-08-23T00:34:28.507Z,7.40
2022-08-23T00:37:18.080Z,7.80
2022-08-23T00:40:10.463Z,9.00
2022-08-23T00:43:30.980Z,6.20
2022-08-23T00:46:56.259Z,6.80
2022-08-23T00:49:50.856Z,6.10
2022-08-23T00:52:58.043Z,5.70
2022-08-23T00:55:51.063Z,7.60
2022-08-23T00:58:39.865Z,6.90
2022-08-23T01:01:28.793Z,7.20
2022-08-23T01:04:17.581Z,8.00
2022-08-23T01:07:23.716Z,9.30
2022-08-23T01:10:25.743Z,8.00
2022-08-23T01:13:22.478Z,7.10
2022-08-23T01:16:21.434Z,7.30
2022-08-23T01:19:31.661Z,6.30
2022-08-23T01:22:41.495Z,6.90
2022-08-23T01:25:33.112Z,7.00
2022-08-23T01:28:21.475Z,8.60
2022-08-23T01:31:11.669Z,6.80
2022-08-23T01:34:05.441Z,6.10
2022-08-23T01:36:53.620Z,9.20
2022-08-23T01:39:41.656Z,8.40
2022-08-23T01:42:29.815Z,5.70
2022-08-23T01:45:17.937Z,6.40
2022-08-23T01:48:06.570Z,7.40
2022-08-23T01:50:54.365Z,7.20
2022-08-23T01:53:44.164Z,8.70
2022-08-23T01:56:39.019Z,7.90
2022-08-23T01:59:31.537Z,7.10
2022-08-23T02:02:19.932Z,6.70
2022-08-23T02:05:09.262Z,7.00
2022-08-23T02:08:18.653Z,8.00
2022-08-23T02:11:17.943Z,6.70
2022-08-23T02:14:15.462Z,6.40
2022-08-23T02:17:29.768Z,6.90
2022-08-23T02:20:19.567Z,7.70
2022-08-23T02:23:07.694Z,7.70
2022-08-23T02:25:55.824Z,6.20
2022-08-23T02:28:43.710Z,8.50
2022-08-23T02:31:32.075Z,8.10
2022-08-23T02:34:21.177Z,8.10
2022-08-23T02:37:13.334Z,8.30
2022-08-23T02:40:01.426Z,9.10
2022-08-23T02:42:50.135Z,6.80
2022-08-23T02:45:39.934Z,7.20
2022-08-23T02:48:28.166Z,7.40
2022-08-23T02:51:21.676Z,8.00
2022-08-23T02:54:10.338Z,6.90
2022-08-23T02:56:58.528Z,8.00
2022-08-23T02:59:46.226Z,8.00
2022-08-23T03:02:34.179Z,7.00
2022-08-23T03:05:22.496Z,9.70
2022-08-23T03:08:13.619Z,10.30
2022-08-23T03:11:21.137Z,7.70
2022-08-23T03:14:11.820Z,9.80
2022-08-23T03:16:59.934Z,8.70
2022-08-23T03:19:48.710Z,9.00
2022-08-23T03:22:38.011Z,9.90
2022-08-23T03:25:27.494Z,7.80
2022-08-23T03:28:26.153Z,9.70
2022-08-23T03:31:15.996Z,6.60
2022-08-23T03:34:30.389Z,9.30
2022-08-23T03:37:19.375Z,9.30
2022-08-23T03:40:08.688Z,10.30
2022-08-23T03:42:56.835Z,7.90
2022-08-23T03:45:46.115Z,8.00
2022-08-23T03:48:34.900Z,8.10
2022-08-23T03:51:24.616Z,8.00
2022-08-23T03:54:13.296Z,9.90
2022-08-23T03:57:06.621Z,8.10
2022-08-23T03:59:55.248Z,10.30
2022-08-23T04:02:44.480Z,7.50
2022-08-23T04:05:32.672Z,10.80
2022-08-23T04:08:31.942Z,10.20
2022-08-23T04:11:23.589Z,7.20
2022-08-23T04:14:18.045Z,8.70
2022-08-23T04:17:06.986Z,8.60
2022-08-23T04:19:55.698Z,8.80
2022-08-23T04:22:45.904Z,9.60
2022-08-23T04:25:35.814Z,8.40
2022-08-23T04:28:25.443Z,10.90
2022-08-23T04:31:14.630Z,8.50
2022-08-23T04:34:04.292Z,8.80
2022-08-23T04:36:55.328Z,12.00
2022-08-23T04:40:01.706Z,8.90
2022-08-23T04:42:56.596Z,7.90
2022-08-23T04:45:45.303Z,9.20
2022-08-23T04:48:42.673Z,8.80
2022-08-23T04:51:30.623Z,10.30
2022-08-23T04:54:21.349Z,8.60
2022-08-23T04:57:29.447Z,9.90
2022-08-23T05:00:18.404Z,10.40
2022-08-23T05:03:13.532Z,10.00
2022-08-23T05:06:02.361Z,12.00
2022-08-23T05:08:55.291Z,13.90
2022-08-23T05:11:43.360Z,10.40
2022-08-23T05:14:31.416Z,11.30
2022-08-23T05:17:19.545Z,12.10
2022-08-23T05:20:10.419Z,12.50
2022-08-23T05:23:01.643Z,10.10
2022-08-23T05:25:56.926Z,9.20
2022-08-23T05:28:50.343Z,11.40
2022-08-23T05:31:39.631Z,10.30
2022-08-23T05:34:28.083Z,12.40
2022-08-23T05:37:18.536Z,10.20
2022-08-23T05:40:07.378Z,9.30
2022-08-23T05:42:59.402Z,11.00
2022-08-23T05:45:48.071Z,11.60
2022-08-23T05:48:38.488Z,13.10
2022-08-23T05:51:33.051Z,11.10
2022-08-23T05:54:21.291Z,9.50
2022-08-23T05:57:20.745Z,10.40
2022-08-23T06:00:15.746Z,12.80
2022-08-23T06:03:16.996Z,12.80
2022-08-23T06:06:08.945Z,12.70
2022-08-23T06:08:57.234Z,12.50
2022-08-23T06:11:48.372Z,13.10
2022-08-23T06:14:37.272Z,11.30
2022-08-23T06:17:25.744Z,9.80
2022-08-23T06:20:15.946Z,11.90
2022-08-23T06:23:18.806Z,11.20
2022-08-23T06:26:24.059Z,10.70
2022-08-23T06:29:17.709Z,11.40
2022-08-23T06:32:06.902Z,9.80
2022-08-23T06:35:18.966Z,8.20
2022-08-23T06:38:15.234Z,8.90
2022-08-23T06:41:33.301Z,6.80
2022-08-23T06:44:30.289Z,8.10
2022-08-23T06:47:38.546Z,8.00
2022-08-23T06:50:26.681Z,9.40
2022-08-23T06:53:39.643Z,8.00
2022-08-23T06:56:43.698Z,8.40
2022-08-23T06:59:41.968Z,8.40
2022-08-23T07:02:52.075Z,10.90
2022-08-23T07:06:08.027Z,9.70
2022-08-23T07:09:01.558Z,9.40
2022-08-23T07:11:50.225Z,9.00
2022-08-23T07:14:38.825Z,8.30
2022-08-23T07:17:26.532Z,9.70
2022-08-23T07:20:14.903Z,10.60
2022-08-23T07:23:05.681Z,10.00
2022-08-23T07:25:54.200Z,8.80
2022-08-23T07:28:45.645Z,10.50
2022-08-23T07:31:39.205Z,8.70
2022-08-23T07:34:27.421Z,10.70
2022-08-23T07:37:18.654Z,12.40
2022-08-23T07:40:08.975Z,9.00
2022-08-23T07:42:57.760Z,9.00
2022-08-23T07:45:48.571Z,10.40
2022-08-23T07:48:53.539Z,11.20
2022-08-23T07:51:50.502Z,11.80
2022-08-23T07:54:39.052Z,9.90
2022-08-23T07:57:48.693Z,8.50
2022-08-23T08:00:48.531Z,10.90
2022-08-23T08:03:58.837Z,9.20
2022-08-23T08:07:10.464Z,12.50
2022-08-23T08:10:01.947Z,11.60
2022-08-23T08:12:50.765Z,14.60
2022-08-23T08:15:42.351Z,11.70
2022-08-23T08:18:33.506Z,11.70
2022-08-23T08:21:48.744Z,11.10
2022-08-23T08:24:56.554Z,14.10
2022-08-23T08:27:45.122Z,10.10
2022-08-23T08:30:33.450Z,16.30
2022-08-23T08:33:21.612Z,11.00
2022-08-23T08:36:42.741Z,13.30
2022-08-23T08:39:35.147Z,12.80
2022-08-23T08:42:58.463Z,11.70
2022-08-23T08:46:14.120Z,13.80
2022-08-23T08:49:05.209Z,11.30
2022-08-23T08:52:32.102Z,13.30
2022-08-23T08:55:39.807Z,12.70
2022-08-23T08:58:57.074Z,14.10
2022-08-23T09:01:45.110Z,13.00
2022-08-23T09:04:37.403Z,16.50
2022-08-23T09:07:51.906Z,16.30
2022-08-23T09:11:06.547Z,12.80
2022-08-23T09:14:43.916Z,13.20
2022-08-23T09:17:51.071Z,15.50
2022-08-23T09:20:42.098Z,16.40
2022-08-23T09:23:41.375Z,15.40
2022-08-23T09:26:31.640Z,16.80
2022-08-23T09:29:31.171Z,15.70
2022-08-23T09:32:33.171Z,14.60
2022-08-23T09:35:26.010Z,15.50
2022-08-23T09:38:20.591Z,13.00
2022-08-23T09:41:28.366Z,19.10
2022-08-23T09:44:42.697Z,16.20
2022-08-23T09:47:44.380Z,13.60
2022-08-23T09:51:03.989Z,13.10
2022-08-23T09:54:19.249Z,12.10
2022-08-23T09:57:11.418Z,14.30
2022-08-23T10:00:30.661Z,15.30
2022-08-23T10:03:29.510Z,13.50
2022-08-23T10:06:32.026Z,11.00
2022-08-23T10:09:33.386Z,12.10
2022-08-23T10:12:23.989Z,12.50
2022-08-23T10:15:12.228Z,17.40
2022-08-23T10:18:11.640Z,12.10
2022-08-23T10:21:25.585Z,10.40
2022-08-23T10:24:38.591Z,9.30
2022-08-23T10:28:03.308Z,12.60
2022-08-23T10:31:05.846Z,9.20
2022-08-23T10:33:59.375Z,11.60
2022-08-23T10:37:31.675Z,12.10
2022-08-23T10:40:34.723Z,13.20
2022-08-23T10:43:43.017Z,16.20
2022-08-23T10:46:39.585Z,12.40
2022-08-23T10:49:29.018Z,15.60
2022-08-23T10:52:31.530Z,12.60
2022-08-23T10:55:39.509Z,14.00
2022-08-23T10:58:47.545Z,14.00
2022-08-23T11:02:24.127Z,15.40
2022-08-23T11:05:30.103Z,12.40
2022-08-23T11:08:38.419Z,13.30
2022-08-23T11:11:43.368Z,14.40
2022-08-23T11:14:31.329Z,14.00
2022-08-23T11:17:33.519Z,13.00
2022-08-23T11:20:50.245Z,13.00
2022-08-23T11:23:58.626Z,13.90
2022-08-23T11:26:47.846Z,15.10
2022-08-23T11:29:38.804Z,13.00
2022-08-23T11:32:47.378Z,15.20
2022-08-23T11:35:53.176Z,14.10
2022-08-23T11:38:47.793Z,14.20
2022-08-23T11:41:55.602Z,12.90
2022-08-23T11:44:49.289Z,11.50
2022-08-23T11:47:44.506Z,16.90
2022-08-23T11:51:07.961Z,16.00
2022-08-23T11:54:45.706Z,22.70
2022-08-23T11:58:30.615Z,18.60
2022-08-23T12:01:32.010Z,20.00
2022-08-23T12:04:39.260Z,15.40
2022-08-23T12:08:01.688Z,12.90
2022-08-23T12:10:51.286Z,20.70
2022-08-23T12:14:01.833Z,15.50
2022-08-23T12:16:50.299Z,14.00
2022-08-23T12:19:53.905Z,15.80
2022-08-23T12:23:12.987Z,19.20
2022-08-23T12:26:22.790Z,16.10
2022-08-23T12:29:54.736Z,18.40
2022-08-23T12:32:45.159Z,13.70
2022-08-23T12:36:15.444Z,16.00
2022-08-23T12:39:20.603Z,16.10
2022-08-23T12:42:20.508Z,14.80
2022-08-23T12:45:23.529Z,16.60
2022-08-23T12:48:16.773Z,16.20
2022-08-23T12:51:12.782Z,17.20
2022-08-23T12:54:17.118Z,15.90
2022-08-23T12:57:11.849Z,17.30
2022-08-23T13:00:17.170Z,16.10
2022-08-23T13:03:19.932Z,16.80
2022-08-23T13:06:14.106Z,17.80
2022-08-23T13:09:19.709Z,14.10
2022-08-23T13:12:09.359Z,16.60
2022-08-23T13:15:01.782Z,14.80
2022-08-23T13:18:02.070Z,15.70
2022-08-23T13:21:23.256Z,15.50
2022-08-23T13:24:38.604Z,14.60
2022-08-23T13:27:38.175Z,17.20
2022-08-23T13:30:37.352Z,14.50
2022-08-23T13:33:27.680Z,15.50
2022-08-23T13:36:22.202Z,13.40
2022-08-23T13:39:12.071Z,15.90
2022-08-23T13:41:59.907Z,15.30
2022-08-23T13:44:48.624Z,21.40
2022-08-23T13:47:49.260Z,17.80
2022-08-23T13:50:42.709Z,16.30
2022-08-23T13:53:30.932Z,18.70
2022-08-23T13:56:28.192Z,13.60
2022-08-23T13:59:38.379Z,13.60
2022-08-23T14:02:27.234Z,16.80
2022-08-23T14:05:23.039Z,17.00
2022-08-23T14:08:11.394Z,17.40
2022-08-23T14:10:59.570Z,14.60
2022-08-23T14:13:49.434Z,20.40
2022-08-23T14:16:39.995Z,15.60
2022-08-23T14:22:41.146Z,17.30
2022-08-23T14:25:32.506Z,14.70
2022-08-23T14:28:20.816Z,17.40
2022-08-23T14:31:09.133Z,13.70
2022-08-23T14:34:02.144Z,13.70
2022-08-23T14:40:03.641Z,19.80
2022-08-23T14:42:51.848Z,15.30
2022-08-23T14:45:40.383Z,17.90
2022-08-23T14:48:29.077Z,17.80
2022-08-23T14:51:36.812Z,15.90
2022-08-23T14:54:33.114Z,14.50
2022-08-23T14:57:20.790Z,18.20
2022-08-23T15:00:14.191Z,21.40
2022-08-23T15:03:09.622Z,15.20
2022-08-23T15:05:58.194Z,19.20
2022-08-23T15:08:46.700Z,16.20
2022-08-23T15:14:42.932Z,16.90
2022-08-23T15:17:31.807Z,14.50
2022-08-23T15:20:30.421Z,16.60
2022-08-23T15:23:18.488Z,16.30
2022-08-23T15:26:06.510Z,16.60
2022-08-23T15:28:54.433Z,17.90
2022-08-23T15:31:42.413Z,17.40
2022-08-23T15:34:33.310Z,15.80
2022-08-23T15:37:23.400Z,14.70
2022-08-23T15:40:13.026Z,13.00
2022-08-23T15:43:03.649Z,16.90
2022-08-23T15:45:51.650Z,15.70
2022-08-23T15:48:57.359Z,12.60
2022-08-23T15:51:48.113Z,13.80
2022-08-23T15:54:39.369Z,18.60
2022-08-23T15:57:28.795Z,12.60
2022-08-23T16:00:20.152Z,17.00
2022-08-23T16:03:19.252Z,16.50
2022-08-23T16:06:11.965Z,18.50
2022-08-23T16:09:16.459Z,15.20
2022-08-23T16:12:07.403Z,16.90
2022-08-23T16:15:01.713Z,15.10
2022-08-23T16:17:55.660Z,16.40
2022-08-23T16:20:47.432Z,18.30
2022-08-23T16:23:44.850Z,15.20
2022-08-23T16:26:41.905Z,13.40
2022-08-23T16:29:37.279Z,15.50
2022-08-23T16:32:25.257Z,14.50
2022-08-23T16:35:13.167Z,14.40
2022-08-23T16:38:01.505Z,14.60
2022-08-23T16:40:49.092Z,19.20
2022-08-23T16:43:37.069Z,17.00
2022-08-23T16:46:25.756Z,16.40
2022-08-23T16:49:24.356Z,16.60
2022-08-23T16:52:13.019Z,16.80
2022-08-23T16:55:11.273Z,15.70
2022-08-23T16:58:01.821Z,13.40
2022-08-23T17:00:50.741Z,15.00
2022-08-23T17:03:38.530Z,17.10
2022-08-23T17:06:26.760Z,17.90
2022-08-23T17:09:15.001Z,15.60
2022-08-23T17:12:04.025Z,18.00
2022-08-23T17:14:52.052Z,17.50
2022-08-23T17:17:39.939Z,15.90
2022-08-23T17:20:32.232Z,20.00
2022-08-23T17:23:20.480Z,15.60
2022-08-23T17:26:10.303Z,20.20
2022-08-23T17:28:57.922Z,16.80
2022-08-23T17:31:45.991Z,16.40
2022-08-23T17:34:34.047Z,13.70
2022-08-23T17:37:22.993Z,15.30
2022-08-23T17:40:16.198Z,15.90
2022-08-23T17:43:09.826Z,21.10
2022-08-23T17:45:57.874Z,16.80
2022-08-23T17:48:45.958Z,19.20
2022-08-23T17:51:35.855Z,19.50
2022-08-23T17:54:23.880Z,19.00
2022-08-23T17:57:12.778Z,18.20
2022-08-23T18:00:01.605Z,18.50
2022-08-23T18:02:52.368Z,19.90
2022-08-23T18:05:41.519Z,20.70
2022-08-23T18:08:29.535Z,16.00
2022-08-23T18:11:17.684Z,13.80
2022-08-23T18:14:06.641Z,17.70
2022-08-23T18:16:56.834Z,20.50
2022-08-23T18:19:44.830Z,21.30
2022-08-23T18:22:32.971Z,19.80
2022-08-23T18:25:21.141Z,21.10
2022-08-23T18:28:10.132Z,21.70
2022-08-23T18:30:58.107Z,21.50
2022-08-23T18:33:47.124Z,14.10
2022-08-23T18:36:36.466Z,17.00
2022-08-23T18:39:27.618Z,14.10
2022-08-23T18:42:22.821Z,16.50
2022-08-23T18:45:11.389Z,21.90
2022-08-23T18:47:59.379Z,17.40
2022-08-23T18:50:47.767Z,16.20
2022-08-23T18:53:37.285Z,18.80
2022-08-23T18:56:26.321Z,18.60
2022-08-23T18:59:14.240Z,19.50
2022-08-23T19:02:02.503Z,17.50
2022-08-23T19:04:53.325Z,22.10
2022-08-23T19:07:41.696Z,17.70
2022-08-23T19:10:30.360Z,17.00
2022-08-23T19:13:18.429Z,17.70
2022-08-23T19:16:10.138Z,18.50
2022-08-23T19:18:58.066Z,22.70
2022-08-23T19:21:46.562Z,17.10
2022-08-23T19:24:34.961Z,18.00
2022-08-23T19:27:22.997Z,16.20
2022-08-23T19:30:12.839Z,14.90
2022-08-23T19:33:05.733Z,16.60
2022-08-23T19:35:55.411Z,18.90
2022-08-23T19:38:46.486Z,18.00
2022-08-23T19:41:37.425Z,19.00
2022-08-23T19:44:25.273Z,17.40
2022-08-23T19:47:19.637Z,17.10
2022-08-23T19:50:10.313Z,13.30
2022-08-23T19:52:58.610Z,17.30
2022-08-23T19:55:48.123Z,16.30
2022-08-23T19:58:37.351Z,16.10
2022-08-23T20:01:25.537Z,18.30
2022-08-23T20:04:13.281Z,17.30
2022-08-23T20:07:03.340Z,15.60
2022-08-23T20:09:51.229Z,17.20
2022-08-23T20:12:41.882Z,15.60
2022-08-23T20:15:30.030Z,16.20
2022-08-23T20:18:18.257Z,17.20
2022-08-23T20:21:08.854Z,16.30
2022-08-23T20:24:04.290Z,16.00
2022-08-23T20:26:52.450Z,17.30
2022-08-23T20:29:41.014Z,16.10
2022-08-23T20:32:31.358Z,14.60
2022-08-23T20:35:19.816Z,20.60
2022-08-23T20:38:07.607Z,14.90
2022-08-23T20:40:55.683Z,14.80
2022-08-23T20:43:46.760Z,18.50
2022-08-23T20:46:35.222Z,15.20
2022-08-23T20:49:23.586Z,19.20
2022-08-23T20:52:12.214Z,16.50
2022-08-23T20:54:59.929Z,16.80
2022-08-23T20:57:48.266Z,17.30
2022-08-23T21:00:36.354Z,19.30
2022-08-23T21:03:24.915Z,18.30
2022-08-23T21:06:20.767Z,16.40
2022-08-23T21:09:10.534Z,17.00
2022-08-23T21:11:58.511Z,22.90
2022-08-23T21:14:46.463Z,17.70
2022-08-23T21:17:34.701Z,19.80
2022-08-23T21:20:23.150Z,15.90
2022-08-23T21:23:11.307Z,20.90
2022-08-23T21:25:59.836Z,18.20
2022-08-23T21:28:47.406Z,18.60
2022-08-23T21:31:36.164Z,17.20
2022-08-23T21:34:24.634Z,18.80
2022-08-23T21:37:12.576Z,18.90
2022-08-23T21:40:04.016Z,22.30
2022-08-23T21:42:56.633Z,20.00
2022-08-23T21:45:48.068Z,21.80
2022-08-23T21:48:36.271Z,15.70
2022-08-23T21:51:24.874Z,17.60
2022-08-23T21:54:14.327Z,15.70
2022-08-23T21:57:05.222Z,21.90
2022-08-23T21:59:53.528Z,18.00
2022-08-23T22:02:41.418Z,21.50
2022-08-23T22:05:29.504Z,19.30
2022-08-23T22:08:17.240Z,16.70
2022-08-23T22:11:07.340Z,20.60
2022-08-23T22:13:55.902Z,19.20
2022-08-23T22:16:44.414Z,18.30
2022-08-23T22:19:32.229Z,18.70
2022-08-23T22:22:20.267Z,21.30
2022-08-23T22:25:08.954Z,18.90
2022-08-23T22:27:56.954Z,19.10
2022-08-23T22:30:45.513Z,20.40
2022-08-23T22:33:33.725Z,21.20
2022-08-23T22:36:23.923Z,21.40
2022-08-23T22:39:12.577Z,18.20
2022-08-23T22:42:00.299Z,17.90
2022-08-23T22:44:48.279Z,17.20
2022-08-23T22:47:36.680Z,19.60
2022-08-23T22:50:24.868Z,18.80
2022-08-23T22:53:12.842Z,19.00
2022-08-23T22:56:00.866Z,18.30
2022-08-23T22:58:52.613Z,18.90
2022-08-23T23:01:49.380Z,19.70
2022-08-23T23:04:37.642Z,20.40
2022-08-23T23:07:44.411Z,16.40
2022-08-23T23:10:32.295Z,19.70
2022-08-23T23:13:23.326Z,23.00
2022-08-23T23:16:16.476Z,18.60
2022-08-23T23:19:24.332Z,18.00
2022-08-23T23:22:12.412Z,17.10
2022-08-23T23:25:02.231Z,24.00
2022-08-23T23:27:50.223Z,21.30
2022-08-23T23:30:39.081Z,23.40
2022-08-23T23:33:28.182Z,24.00
2022-08-23T23:36:18.935Z,23.10
2022-08-23T23:39:12.367Z,21.40
2022-08-23T23:42:00.436Z,16.90
2022-08-23T23:44:48.405Z,18.50
2022-08-23T23:47:36.307Z,19.20
2022-08-23T23:50:26.024Z,23.20
2022-08-23T23:53:15.788Z,18.10
2022-08-23T23:56:06.583Z,17.40
2022-08-23T23:58:56.829Z,25.70
